Time;durP1;ratioP1;P1;durP2;ratioP2;P2;SDS_P1;SDS_P2;PMS_P1;PMS_P2;Temp;Humidity;BMP_temperature;BMP_pressure;BME280_temperature;BME280_humidity;BME280_pressure;Samples;Min_cycle;Max_cycle;Signal;HPM_P1;HPM_P2
2021/12/05 00:24:15;;;;;;;3.30;2.10;;;;;;;15.70;46.96;94232.09;10667399;27;20114;-83
2021/12/05 00:29:26;;;;;;;2.70;2.30;;;;;;;15.68;47.01;94228.91;10666965;27;20054;-81
2021/12/05 00:51:02;;;;;;;3.35;2.45;;;;;;;15.64;47.16;94247.81;10647672;27;20050;-80
2021/12/05 01:16:54;;;;;;;2.50;2.20;;;;;;;15.59;47.27;94262.31;10665609;27;20057;-80
2021/12/05 01:22:05;;;;;;;2.22;2.03;;;;;;;15.59;47.28;94275.31;10646759;27;20392;-81
2021/12/05 01:37:31;;;;;;;2.55;2.30;;;;;;;15.58;47.12;94285.97;10645832;27;20070;-82
2021/12/05 01:43:18;;;;;;;2.97;2.15;;;;;;;15.56;47.23;94282.81;10646388;27;20107;-87
2021/12/05 01:54:06;;;;;;;2.63;2.40;;;;;;;15.56;47.20;94293.22;10645796;27;20066;-81
2021/12/05 02:47:36;;;;;;;2.50;2.30;;;;;;;15.51;47.14;94300.91;10626152;27;20042;-86
2021/12/05 02:52:40;;;;;;;2.75;2.20;;;;;;;15.50;47.25;94294.13;10653013;27;20125;-79
2021/12/05 03:02:55;;;;;;;2.88;2.58;;;;;;;15.50;47.37;94300.13;10652334;27;20126;-88
2021/12/05 03:08:01;;;;;;;3.38;2.50;;;;;;;15.49;47.28;94319.31;10634784;27;20043;-87
2021/12/05 03:13:05;;;;;;;2.88;2.20;;;;;;;15.52;47.33;94328.50;10652220;27;20564;-86
2021/12/05 03:18:08;;;;;;;4.32;2.25;;;;;;;15.50;47.23;94323.53;10609040;27;20104;-81
2021/12/05 03:23:11;;;;;;;2.55;2.33;;;;;;;15.50;47.23;94328.72;10608795;27;20082;-84
2021/12/05 03:28:12;;;;;;;5.10;2.75;;;;;;;15.50;47.39;94338.34;10625491;27;20050;-87
2021/12/05 03:33:14;;;;;;;2.58;2.20;;;;;;;15.49;47.22;94334.94;10651013;27;20046;-86
2021/12/05 03:38:16;;;;;;;2.55;2.30;;;;;;;15.50;47.06;94335.75;10669628;27;20477;-81
2021/12/05 03:43:20;;;;;;;2.92;2.63;;;;;;;15.49;47.30;94328.94;10633922;27;20088;-82
2021/12/05 03:48:26;;;;;;;2.90;2.15;;;;;;;15.48;47.20;94335.97;10650379;27;20248;-80
2021/12/05 03:53:29;;;;;;;2.90;2.25;;;;;;;15.48;47.21;94329.97;10650512;27;20149;-81
2021/12/05 03:58:32;;;;;;;2.80;2.42;;;;;;;15.48;47.34;94337.75;10649804;27;20076;-85
2021/12/05 04:03:35;;;;;;;2.63;2.22;;;;;;;15.48;47.36;94332.56;10650309;27;20414;-79
2021/12/05 04:08:40;;;;;;;2.40;2.20;;;;;;;15.47;47.22;94331.00;10649389;27;20091;-86
2021/12/05 04:13:44;;;;;;;2.45;2.10;;;;;;;15.47;47.47;94323.19;10649591;27;20051;-84
2021/12/05 04:18:47;;;;;;;2.33;2.13;;;;;;;15.45;47.35;94307.81;10649453;27;20062;-79
2021/12/05 04:23:49;;;;;;;2.90;2.40;;;;;;;15.45;47.17;94318.22;10649475;27;20059;-81
2021/12/05 04:28:55;;;;;;;2.72;2.15;;;;;;;15.45;47.44;94312.25;10632189;27;20042;-81
2021/12/05 04:33:57;;;;;;;2.28;2.00;;;;;;;15.44;47.21;94311.44;10648809;27;20046;-87
2021/12/05 04:39:00;;;;;;;3.00;2.30;;;;;;;15.44;47.19;94308.84;10648301;27;20061;-80
2021/12/05 04:44:06;;;;;;;2.45;2.25;;;;;;;15.44;47.12;94302.84;10648443;27;20069;-85
2021/12/05 04:49:09;;;;;;;2.42;2.22;;;;;;;15.41;47.28;94302.28;10648043;27;20043;-80
2021/12/05 04:54:16;;;;;;;2.55;2.20;;;;;;;15.41;47.51;94299.69;10666501;27;20492;-82
2021/12/05 04:59:22;;;;;;;2.42;2.08;;;;;;;15.41;47.09;94299.69;10666505;27;20029;-84
2021/12/05 05:04:28;;;;;;;2.83;2.30;;;;;;;15.38;47.41;94287.16;10647492;27;20059;-83
2021/12/05 05:09:30;;;;;;;2.95;2.08;;;;;;;15.39;47.30;94291.31;10664649;27;20552;-84
2021/12/05 05:14:32;;;;;;;3.03;2.38;;;;;;;15.41;47.39;94291.09;10666073;27;20043;-87
2021/12/05 05:19:39;;;;;;;2.17;1.98;;;;;;;15.39;47.35;94275.72;10665148;27;20054;-81
2021/12/05 05:46:17;;;;;;;2.38;2.17;;;;;;;15.39;47.42;94295.75;10664885;27;20058;-82
2021/12/05 05:51:19;;;;;;;2.38;2.10;;;;;;;15.37;47.28;94303.75;10646156;27;20037;-82
2021/12/05 05:56:30;;;;;;;2.53;1.95;;;;;;;15.35;47.43;94298.00;10664014;27;20057;-83
2021/12/05 06:06:39;;;;;;;2.75;2.10;;;;;;;15.35;47.70;94302.41;10645900;27;20369;-80
2021/12/05 06:11:46;;;;;;;2.38;1.90;;;;;;;15.36;47.26;94301.41;10664071;27;20491;-82
2021/12/05 06:16:47;;;;;;;2.13;1.88;;;;;;;15.36;47.13;94304.78;10645441;27;20396;-85
2021/12/05 06:21:56;;;;;;;2.65;2.05;;;;;;;15.36;47.21;94309.97;10667017;27;20045;-86
2021/12/05 06:27:00;;;;;;;2.80;2.00;;;;;;;15.35;47.40;94305.81;10653914;27;20043;-80
2021/12/05 06:36:47;;;;;;;3.95;2.00;;;;;;;15.36;47.50;94319.59;10672219;27;20057;-83
2021/12/05 06:38:04;;;;;;;1.83;1.70;;;;;;;15.36;47.56;94325.56;10671140;27;20082;-87
2021/12/05 06:45:56;;;;;;;1.90;1.60;;;;;;;15.35;47.16;94311.00;10665045;27;20042;-79
2021/12/05 06:48:28;;;;;;;1.98;1.70;;;;;;;15.35;47.43;94324.00;10610268;27;20043;-81
2021/12/05 06:53:36;;;;;;;1.85;1.75;;;;;;;15.36;47.60;94324.78;10631983;27;20050;-81
2021/12/05 06:58:41;;;;;;;1.60;1.48;;;;;;;15.36;47.33;94322.97;10639037;27;20480;-81
2021/12/05 07:03:45;;;;;;;2.25;1.67;;;;;;;15.35;47.49;94320.59;10627963;27;20047;-83
2021/12/05 07:08:56;;;;;;;2.05;1.77;;;;;;;15.36;47.39;94335.97;10644086;27;20043;-85
2021/12/05 07:24:51;;;;;;;1.63;1.52;;;;;;;15.40;47.46;94331.91;10638336;27;20046;-79
2021/12/05 07:40:45;;;;;;;1.70;1.60;;;;;;;15.47;47.18;94316.19;10624090;27;20142;-81
2021/12/05 07:46:05;;;;;;;1.50;1.40;;;;;;;15.52;46.66;94312.88;10668610;27;20115;-85
2021/12/05 07:51:28;;;;;;;2.53;1.55;;;;;;;15.57;46.65;94308.59;10669209;27;20061;-84
2021/12/05 07:57:03;;;;;;;1.80;1.42;;;;;;;15.66;46.75;94313.41;10609272;27;20104;-83
2021/12/05 08:18:07;;;;;;;34.78;3.20;;;;;;;15.87;49.72;94318.00;10644053;27;20043;-81
2021/12/05 08:23:11;;;;;;;17.33;2.95;;;;;;;15.97;51.68;94312.19;10664784;27;20039;-83
2021/12/05 08:33:40;;;;;;;13.70;2.90;;;;;;;16.72;50.01;94305.06;10652118;27;20510;-83
2021/12/05 09:22:24;;;;;;;32.17;3.50;;;;;;;18.34;47.05;94331.81;10662235;27;20031;-83
2021/12/05 09:27:53;;;;;;;23.35;3.65;;;;;;;18.26;46.64;94343.50;10665112;27;20038;-86
2021/12/05 10:11:19;;;;;;;10.68;2.30;;;;;;;18.25;46.34;94317.63;10649734;27;20039;-79
2021/12/05 10:17:31;;;;;;;13.88;2.05;;;;;;;18.26;46.50;94321.81;10668532;27;20480;-81
2021/12/05 10:38:37;;;;;;;9.32;2.20;;;;;;;18.26;45.53;94304.34;10664501;27;20095;-79
2021/12/05 10:43:40;;;;;;;17.95;3.65;;;;;;;18.26;45.45;94308.75;10665192;27;20042;-84
2021/12/05 10:48:46;;;;;;;14.63;2.45;;;;;;;18.27;45.22;94318.16;10664268;27;20047;-82
2021/12/05 10:53:49;;;;;;;10.65;2.80;;;;;;;18.26;45.15;94308.75;10662961;27;20042;-75
2021/12/05 10:58:58;;;;;;;8.85;2.95;;;;;;;18.25;45.41;94305.34;10663332;27;20043;-77
2021/12/05 11:04:09;;;;;;;6.60;2.50;;;;;;;18.26;45.24;94306.94;10664185;27;20034;-78
2021/12/05 11:09:15;;;;;;;10.93;2.80;;;;;;;18.26;45.16;94303.53;10648701;27;20038;-82
2021/12/05 11:14:25;;;;;;;10.50;2.95;;;;;;;18.24;44.88;94306.38;10671454;27;20038;-78
2021/12/05 11:19:30;;;;;;;7.80;2.72;;;;;;;18.23;45.01;94306.63;10671545;27;20042;-80
2021/12/05 11:24:53;;;;;;;7.10;2.75;;;;;;;18.22;44.70;94305.84;10671338;27;20377;-83
2021/12/05 11:30:00;;;;;;;11.15;2.58;;;;;;;18.21;44.79;94306.88;10671007;27;20074;-83
2021/12/05 11:35:10;;;;;;;;;;;;;;;18.20;44.72;94307.13;10671220;27;20117;-87
2021/12/05 11:40:11;;;;;;;4.57;2.33;;;;;;;18.18;44.50;94302.13;10670585;27;19923;-87
2021/12/05 11:45:13;;;;;;;11.50;2.47;;;;;;;18.16;44.64;94306.84;10652028;27;20055;-83
2021/12/05 11:50:18;;;;;;;4.53;2.50;;;;;;;18.15;44.38;94304.47;10651808;27;20045;-86
2021/12/05 11:55:27;;;;;;;5.28;2.22;;;;;;;18.13;44.46;94304.72;10670321;27;20043;-85
2021/12/05 12:00:31;;;;;;;10.68;3.10;;;;;;;18.10;44.43;94313.03;10669879;27;20429;-83
2021/12/05 12:05:37;;;;;;;6.80;2.65;;;;;;;18.09;44.35;94299.22;10669735;27;20038;-78
2021/12/05 12:10:48;;;;;;;6.18;2.45;;;;;;;18.08;44.38;94302.06;10651274;27;20042;-83
2021/12/05 12:16:00;;;;;;;9.63;2.72;;;;;;;18.05;44.25;94294.72;10651757;27;20034;-80
2021/12/05 12:21:35;;;;;;;7.38;2.92;;;;;;;18.04;44.30;94295.75;10668597;27;20043;-76
2021/12/05 12:26:40;;;;;;;5.20;2.45;;;;;;;18.02;44.20;94292.59;10668975;27;20072;-79
2021/12/05 12:31:46;;;;;;;6.45;2.67;;;;;;;17.99;44.33;94287.88;10668208;27;20404;-80
2021/12/05 12:36:57;;;;;;;7.00;2.60;;;;;;;17.97;44.14;94293.34;10668246;27;20098;-79
2021/12/05 12:42:13;;;;;;;3.58;2.53;;;;;;;17.95;43.95;94298.81;10668062;27;20088;-80
2021/12/05 12:47:14;;;;;;;5.00;2.33;;;;;;;17.93;44.28;94293.06;10667834;27;20551;-77
2021/12/05 12:52:18;;;;;;;5.53;3.45;;;;;;;17.91;44.22;94286.47;10667696;27;20034;-83
2021/12/05 12:57:24;;;;;;;4.75;2.38;;;;;;;17.88;44.11;94290.41;10667464;27;20043;-84
2021/12/05 13:02:52;;;;;;;8.05;2.80;;;;;;;17.87;43.89;94288.00;10648835;27;20038;-77
2021/12/05 13:13:28;;;;;;;3.78;2.72;;;;;;;17.82;44.05;94288.72;10666959;27;20041;-81
2021/12/05 13:18:35;;;;;;;5.75;2.28;;;;;;;17.79;43.97;94288.44;10666561;27;20424;-76
2021/12/05 13:23:43;;;;;;;3.95;2.42;;;;;;;17.78;44.26;94295.47;10648191;27;20060;-82
2021/12/05 13:29:03;;;;;;;9.82;2.90;;;;;;;17.74;44.50;94287.34;10667707;27;20433;-81
2021/12/05 13:34:24;;;;;;;8.02;2.80;;;;;;;17.74;44.43;94289.94;10640918;27;20357;-78
2021/12/05 13:39:29;;;;;;;4.65;2.80;;;;;;;17.72;44.58;94294.63;10636769;27;20045;-81
2021/12/05 13:45:12;;;;;;;6.97;3.33;;;;;;;17.71;44.62;94306.09;10636289;27;20392;-78
2021/12/05 13:50:17;;;;;;;8.27;2.97;;;;;;;17.70;44.45;94308.94;10433791;28;20411;-76
2021/12/05 13:55:31;;;;;;;5.20;2.70;;;;;;;17.68;44.29;94314.41;10604723;27;20095;-76
2021/12/05 14:00:43;;;;;;;4.35;2.83;;;;;;;17.64;44.26;94309.91;10665320;27;20054;-75
2021/12/05 14:05:46;;;;;;;4.63;2.72;;;;;;;17.62;44.37;94314.59;10665636;27;20039;-75
2021/12/05 14:10:49;;;;;;;5.38;2.90;;;;;;;17.60;44.42;94314.84;10665297;27;20477;-76
2021/12/05 14:15:57;;;;;;;4.03;2.58;;;;;;;17.57;44.42;94310.13;10665292;27;20047;-76
2021/12/05 14:21:17;;;;;;;6.22;2.75;;;;;;;17.55;44.38;94312.97;10646935;27;20043;-75
2021/12/05 14:26:25;;;;;;;4.00;2.80;;;;;;;17.53;44.49;94311.63;10665219;27;20057;-75
2021/12/05 14:31:28;;;;;;;;;;;;;;;17.52;44.11;94320.50;10665031;27;20399;-76
2021/12/05 14:36:40;;;;;;;4.70;2.88;;;;;;;17.48;44.17;94312.38;10665300;27;20284;-75
2021/12/05 14:41:44;;;;;;;3.35;2.50;;;;;;;17.45;44.38;94318.06;10665884;27;20034;-76
2021/12/05 14:46:58;;;;;;;3.53;2.72;;;;;;;17.44;44.65;94326.91;10672760;27;20046;-75
2021/12/05 14:52:02;;;;;;;3.83;2.70;;;;;;;17.41;44.52;94330.00;10672686;27;20046;-76
2021/12/05 14:57:13;;;;;;;3.63;2.85;;;;;;;17.39;44.41;94337.28;10653991;27;20087;-77
2021/12/05 15:02:18;;;;;;;4.70;2.90;;;;;;;17.36;44.28;94338.56;10672370;27;20049;-77
2021/12/05 15:07:21;;;;;;;2.60;2.40;;;;;;;17.34;44.42;94345.03;10653416;27;20399;-76
2021/12/05 15:12:27;;;;;;;2.78;2.50;;;;;;;17.31;44.42;94343.72;10671596;27;20218;-75
2021/12/05 15:17:35;;;;;;;4.40;2.97;;;;;;;17.30;44.29;94357.00;10671527;27;20150;-76
2021/12/05 15:22:38;;;;;;;3.50;2.70;;;;;;;17.27;44.50;94360.84;10652895;27;20043;-76
2021/12/05 15:27:41;;;;;;;4.18;2.80;;;;;;;17.25;44.57;94359.53;10671055;27;20404;-76
2021/12/05 15:32:45;;;;;;;3.33;2.80;;;;;;;17.23;44.86;94368.38;10652430;27;20049;-75
2021/12/05 15:38:09;;;;;;;4.43;2.53;;;;;;;17.21;44.53;94367.84;10670849;27;20049;-75
2021/12/05 15:43:19;;;;;;;3.25;2.40;;;;;;;17.18;44.73;94376.13;10670664;27;20442;-76
2021/12/05 15:48:29;;;;;;;4.03;2.63;;;;;;;17.17;44.61;94387.59;10651803;27;20477;-75
2021/12/05 15:53:35;;;;;;;3.83;2.70;;;;;;;17.14;44.62;94390.66;10669113;27;20556;-76
2021/12/05 15:58:47;;;;;;;3.30;2.70;;;;;;;17.13;44.65;94396.94;10669848;27;20103;-75
2021/12/05 16:03:58;;;;;;;3.00;2.70;;;;;;;17.10;44.51;94394.00;10669713;27;20482;-75
2021/12/05 16:09:11;;;;;;;3.17;2.50;;;;;;;17.09;44.74;94405.47;10650909;27;20043;-74
2021/12/05 16:14:15;;;;;;;3.60;2.70;;;;;;;17.07;44.76;94402.28;10669271;27;20066;-76
2021/12/05 16:19:17;;;;;;;3.08;2.78;;;;;;;17.04;44.86;94400.97;10668961;27;20047;-77
2021/12/05 16:24:22;;;;;;;2.90;2.60;;;;;;;17.02;44.87;94410.81;10668972;27;20506;-81
2021/12/05 16:29:25;;;;;;;3.85;2.95;;;;;;;16.99;44.84;94409.50;10668625;27;20119;-80
2021/12/05 16:34:30;;;;;;;3.15;2.67;;;;;;;16.98;44.78;94420.16;10668426;27;20454;-82
2021/12/05 16:39:37;;;;;;;3.45;2.50;;;;;;;16.97;44.82;94431.59;10668337;27;20592;-78
2021/12/05 16:44:40;;;;;;;3.45;2.90;;;;;;;16.94;45.17;94430.28;10668126;27;20049;-74
2021/12/05 16:49:47;;;;;;;3.22;2.67;;;;;;;16.92;45.10;94434.91;10649568;27;20038;-78
2021/12/05 16:54:55;;;;;;;4.53;3.05;;;;;;;16.90;45.13;94426.53;10667627;27;20042;-80
2021/12/05 17:00:00;;;;;;;3.05;2.50;;;;;;;16.89;45.01;94437.19;10667341;27;20042;-80
2021/12/05 17:05:15;;;;;;;3.75;3.03;;;;;;;16.85;45.27;94432.47;10649253;27;20039;-75
2021/12/05 17:10:19;;;;;;;3.08;2.78;;;;;;;16.86;45.11;94441.06;10666871;27;20143;-73
2021/12/05 17:15:28;;;;;;;3.67;2.97;;;;;;;16.84;45.16;94448.31;10666860;27;20035;-79
2021/12/05 17:20:36;;;;;;;3.45;3.05;;;;;;;16.82;45.19;94451.16;10666661;27;20069;-79
2021/12/05 17:25:47;;;;;;;4.05;3.22;;;;;;;16.80;45.02;94447.22;10666626;27;20365;-77
2021/12/05 17:30:51;;;;;;;3.45;2.80;;;;;;;16.78;45.25;94451.84;10647175;27;20050;-75
2021/12/05 17:35:53;;;;;;;3.35;2.88;;;;;;;16.77;45.12;94456.28;10666315;27;20041;-75
2021/12/05 17:40:55;;;;;;;3.58;3.00;;;;;;;16.75;45.16;94458.34;10647670;27;20053;-75
2021/12/05 17:45:57;;;;;;;3.53;2.90;;;;;;;16.74;45.45;94461.97;10665812;27;20049;-76
2021/12/05 17:51:03;;;;;;;5.30;3.20;;;;;;;16.72;45.24;94458.00;10665850;27;20364;-75
2021/12/05 17:56:26;;;;;;;3.80;3.05;;;;;;;16.71;45.45;94464.25;10665720;27;20046;-78
2021/12/05 18:06:48;;;;;;;3.67;2.92;;;;;;;16.66;45.48;94470.94;10665433;27;20039;-74
2021/12/05 18:11:51;;;;;;;3.80;3.00;;;;;;;16.65;45.50;94482.38;10665435;27;20042;-77
2021/12/05 18:16:52;;;;;;;3.55;3.08;;;;;;;16.63;45.46;94479.22;10647907;27;20134;-75
2021/12/05 18:21:54;;;;;;;4.00;2.97;;;;;;;16.62;45.52;94482.06;10673802;27;20066;-74
2021/12/05 18:26:56;;;;;;;4.32;3.10;;;;;;;16.61;45.45;94483.09;10673612;27;20099;-77
2021/12/05 18:32:00;;;;;;;3.53;3.20;;;;;;;16.61;45.38;94488.31;10673169;27;20438;-74
2021/12/05 18:37:04;;;;;;;3.55;3.15;;;;;;;16.59;45.34;94485.94;10673335;27;20446;-81
2021/12/05 18:42:09;;;;;;;3.85;2.97;;;;;;;16.57;45.35;94487.97;10673248;27;20047;-78
2021/12/05 18:47:10;;;;;;;3.55;2.97;;;;;;;16.58;45.39;94488.78;10672900;27;20476;-75
2021/12/05 18:52:13;;;;;;;4.05;3.30;;;;;;;16.55;45.43;94489.22;10672814;27;20047;-75
2021/12/05 18:57:19;;;;;;;3.92;3.13;;;;;;;16.54;45.43;94482.44;10672315;27;20036;-75
2021/12/05 19:08:34;;;;;;;3.50;3.00;;;;;;;16.52;45.22;94484.50;10656531;27;20069;-74
2021/12/05 19:13:07;;;;;;;4.20;3.10;;;;;;;16.49;45.60;94499.53;10661116;27;20058;-75
2021/12/05 19:18:10;;;;;;;3.63;3.10;;;;;;;16.49;45.50;94496.94;10671458;27;20045;-75
2021/12/05 19:23:12;;;;;;;3.40;2.92;;;;;;;16.47;45.45;94496.38;10671545;27;20091;-76
2021/12/05 19:28:13;;;;;;;4.45;3.00;;;;;;;16.47;45.52;94501.59;10669828;27;20058;-77
2021/12/05 19:33:17;;;;;;;4.85;3.05;;;;;;;16.45;45.53;94495.84;10652592;27;20071;-75
2021/12/05 19:38:24;;;;;;;3.47;3.10;;;;;;;16.44;45.48;94503.88;10669947;27;20078;-75
2021/12/05 19:43:29;;;;;;;3.90;3.07;;;;;;;16.42;45.50;94496.28;10669876;27;20035;-76
2021/12/05 19:48:32;;;;;;;4.85;2.90;;;;;;;16.41;45.46;94505.13;10670350;27;20038;-75
2021/12/05 19:53:39;;;;;;;3.78;3.20;;;;;;;16.39;45.74;94507.16;10670228;27;20437;-75
2021/12/05 19:58:41;;;;;;;3.67;3.28;;;;;;;16.39;45.37;94519.41;10670438;27;20448;-74
2021/12/05 20:03:43;;;;;;;4.10;3.22;;;;;;;16.36;45.61;94520.66;10651533;27;20046;-76
2021/12/05 20:08:47;;;;;;;3.40;3.10;;;;;;;16.36;45.64;94519.88;10651169;27;20038;-75
2021/12/05 20:13:57;;;;;;;4.20;3.30;;;;;;;16.35;45.49;94518.28;10669367;27;20099;-75
2021/12/05 20:19:00;;;;;;;3.67;3.13;;;;;;;16.32;45.59;94515.13;10669016;27;20061;-80
2021/12/05 20:24:02;;;;;;;3.95;3.05;;;;;;;16.33;45.71;94521.09;10668926;27;20052;-75
2021/12/05 20:29:05;;;;;;;4.00;3.25;;;;;;;16.31;45.64;94523.16;10668487;27;20047;-77
2021/12/05 20:34:08;;;;;;;4.95;3.42;;;;;;;16.32;45.79;94535.13;10650077;27;20045;-76
2021/12/05 20:39:11;;;;;;;4.03;3.17;;;;;;;16.30;45.74;94535.41;10667935;27;20039;-74
2021/12/05 20:44:13;;;;;;;4.13;3.20;;;;;;;16.28;45.57;94532.22;10668586;27;20037;-75
2021/12/05 20:49:16;;;;;;;3.92;3.00;;;;;;;16.28;45.91;94534.81;10667882;27;20046;-75
2021/12/05 20:54:18;;;;;;;4.28;3.45;;;;;;;16.27;45.79;94537.66;10667925;27;20050;-75
2021/12/05 20:59:20;;;;;;;6.25;3.60;;;;;;;16.27;46.03;94537.66;10649184;27;20440;-77
2021/12/05 21:04:21;;;;;;;3.97;3.15;;;;;;;16.26;45.98;94539.47;10667475;27;20099;-75
2021/12/05 21:09:23;;;;;;;3.65;2.90;;;;;;;16.26;45.83;94544.69;10667121;27;20472;-75
2021/12/05 21:14:25;;;;;;;3.80;3.20;;;;;;;16.25;45.97;94539.69;10667114;27;20046;-74
2021/12/05 21:19:27;;;;;;;3.28;2.97;;;;;;;16.24;46.09;94546.72;10666581;27;20119;-76
2021/12/05 21:24:28;;;;;;;4.30;3.10;;;;;;;16.24;46.14;94545.91;10647652;27;20035;-81
2021/12/05 21:29:30;;;;;;;8.98;3.60;;;;;;;16.24;46.25;94548.53;10646321;27;20054;-78
2021/12/05 21:34:52;;;;;;;6.55;3.28;;;;;;;16.23;45.97;94547.75;10650330;27;20035;-78
2021/12/05 21:39:53;;;;;;;4.22;3.30;;;;;;;16.24;46.18;94545.91;10623064;27;20054;-79
2021/12/05 21:44:55;;;;;;;6.70;3.60;;;;;;;16.23;46.26;94550.34;10623138;27;20053;-78
2021/12/05 21:49:57;;;;;;;9.63;3.28;;;;;;;16.23;46.20;94558.16;10644848;27;20042;-78
2021/12/05 21:54:58;;;;;;;4.30;3.45;;;;;;;16.22;45.90;94563.59;10664898;27;20038;-79
2021/12/05 22:00:00;;;;;;;3.78;3.00;;;;;;;16.22;46.27;94577.38;10664775;27;20511;-78
2021/12/05 22:05:13;;;;;;;5.72;3.13;;;;;;;16.23;46.06;94588.63;10665245;27;20536;-78
2021/12/05 22:10:14;;;;;;;4.32;3.30;;;;;;;16.23;46.02;94584.19;10665112;27;20039;-78
2021/12/05 22:15:20;;;;;;;3.65;3.30;;;;;;;16.23;46.20;94593.81;10646625;27;20039;-78
2021/12/05 22:20:28;;;;;;;5.97;3.40;;;;;;;16.21;46.24;94601.84;10646675;27;20480;-78
2021/12/05 22:25:32;;;;;;;5.82;3.40;;;;;;;16.22;46.05;94602.63;10665116;27;20503;-77
2021/12/05 22:30:36;;;;;;;5.38;3.63;;;;;;;16.21;46.50;94609.66;10664652;27;20107;-79
2021/12/05 22:35:38;;;;;;;5.93;3.80;;;;;;;16.21;46.38;94606.25;10603679;27;20097;-79
2021/12/05 22:40:41;;;;;;;6.05;3.30;;;;;;;16.20;46.19;94613.28;10627813;27;20149;-79
2021/12/05 22:45:43;;;;;;;4.50;3.40;;;;;;;16.20;46.07;94615.88;10664543;27;20051;-78
2021/12/05 22:50:45;;;;;;;9.27;3.35;;;;;;;16.19;46.09;94616.91;10664230;27;20373;-78
2021/12/05 22:55:46;;;;;;;4.20;3.63;;;;;;;16.19;46.21;94616.91;10646126;27;20087;-79
2021/12/05 23:01:06;;;;;;;8.05;3.60;;;;;;;16.18;46.25;94612.72;10664040;27;20039;-78
2021/12/05 23:06:10;;;;;;;5.10;3.53;;;;;;;16.17;46.26;94618.94;10670530;27;20046;-78
2021/12/05 23:11:14;;;;;;;5.22;3.42;;;;;;;16.17;46.06;94618.16;10671809;27;20099;-78
2021/12/05 23:16:16;;;;;;;3.70;3.22;;;;;;;16.17;46.15;94628.56;10671509;27;20141;-78
2021/12/05 23:21:22;;;;;;;5.38;3.63;;;;;;;16.16;46.15;94627.75;10671505;27;20389;-79
2021/12/05 23:26:28;;;;;;;4.88;3.45;;;;;;;16.16;46.06;94637.38;10670818;27;20038;-78
2021/12/05 23:31:29;;;;;;;7.20;3.35;;;;;;;16.14;46.13;94642.81;10651858;27;20074;-78
2021/12/05 23:36:31;;;;;;;3.95;3.35;;;;;;;16.14;45.93;94648.81;10651680;27;20092;-78
2021/12/05 23:41:34;;;;;;;4.72;3.30;;;;;;;16.12;46.29;94642.25;10669987;27;20050;-79
2021/12/05 23:46:36;;;;;;;4.15;3.35;;;;;;;16.12;45.86;94642.25;10669976;27;20042;-78
2021/12/05 23:51:38;;;;;;;5.85;3.20;;;;;;;16.11;46.04;94641.47;10669502;27;20434;-78
2021/12/05 23:56:39;;;;;;;3.65;3.28;;;;;;;16.11;45.79;94640.66;10650992;27;20049;-79
